createdAt,value
2022-11-22T00:00:16.544Z,3.31
2022-11-22T00:01:16.506Z,3.32
2022-11-22T00:02:16.580Z,3.36
2022-11-22T00:03:16.514Z,3.53
2022-11-22T00:04:16.479Z,3.63
2022-11-22T00:05:16.458Z,3.76
2022-11-22T00:06:16.485Z,3.91
2022-11-22T00:07:16.487Z,4.01
2022-11-22T00:08:16.425Z,4.05
2022-11-22T00:09:16.444Z,4.13
2022-11-22T00:10:16.409Z,4.08
2022-11-22T00:11:16.427Z,4.10
2022-11-22T00:12:16.371Z,4.06
2022-11-22T00:13:16.354Z,3.98
2022-11-22T00:14:16.380Z,3.98
2022-11-22T00:15:16.348Z,3.98
2022-11-22T00:16:16.317Z,3.96
2022-11-22T00:17:16.383Z,4.05
2022-11-22T00:18:16.336Z,4.10
2022-11-22T00:19:16.298Z,4.08
2022-11-22T00:20:16.269Z,4.06
2022-11-22T00:21:16.250Z,4.02
2022-11-22T00:22:16.257Z,3.98
2022-11-22T00:23:16.220Z,3.87
2022-11-22T00:24:16.249Z,3.91
2022-11-22T00:25:16.200Z,3.94
2022-11-22T00:26:16.189Z,3.91
2022-11-22T00:27:16.171Z,3.98
2022-11-22T00:28:16.172Z,4.02
2022-11-22T00:29:16.160Z,4.06
2022-11-22T00:30:16.133Z,4.13
2022-11-22T00:31:16.127Z,4.20
2022-11-22T00:32:16.112Z,4.24
2022-11-22T00:33:16.109Z,4.24
2022-11-22T00:34:16.091Z,4.12
2022-11-22T00:35:16.069Z,4.13
2022-11-22T00:36:16.067Z,4.13
2022-11-22T00:37:16.033Z,4.06
2022-11-22T00:38:16.050Z,3.99
2022-11-22T00:39:16.010Z,3.91
2022-11-22T00:40:15.999Z,3.86
2022-11-22T00:41:15.991Z,3.81
2022-11-22T00:42:15.989Z,3.78
2022-11-22T00:43:15.989Z,3.73
2022-11-22T00:44:15.954Z,3.68
2022-11-22T00:45:15.940Z,3.63
2022-11-22T00:46:15.922Z,3.60
2022-11-22T00:47:15.931Z,3.56
2022-11-22T00:48:15.900Z,3.50
2022-11-22T00:49:15.913Z,3.48
2022-11-22T00:50:15.881Z,3.47
2022-11-22T00:51:15.849Z,3.45
2022-11-22T00:52:15.848Z,3.44
2022-11-22T00:53:15.825Z,3.45
2022-11-22T00:54:15.851Z,3.44
2022-11-22T00:55:15.864Z,3.44
2022-11-22T00:56:15.837Z,3.45
2022-11-22T00:57:15.784Z,3.44
2022-11-22T00:58:15.805Z,3.44
2022-11-22T00:59:15.747Z,3.45
2022-11-22T01:00:15.745Z,3.45
2022-11-22T01:01:15.786Z,3.42
2022-11-22T01:02:15.730Z,3.42
2022-11-22T01:03:15.722Z,3.42
2022-11-22T01:04:15.734Z,3.40
2022-11-22T01:05:15.669Z,3.37
2022-11-22T01:06:15.693Z,3.34
2022-11-22T01:07:15.760Z,3.31
2022-11-22T01:08:15.637Z,3.31
2022-11-22T01:09:15.614Z,3.29
2022-11-22T01:10:15.614Z,3.29
2022-11-22T01:11:15.591Z,3.29
2022-11-22T01:12:15.623Z,3.36
2022-11-22T01:13:15.583Z,3.34
2022-11-22T01:14:15.582Z,3.34
2022-11-22T01:15:15.543Z,3.36
2022-11-22T01:16:15.534Z,3.36
2022-11-22T01:17:15.546Z,3.37
2022-11-22T01:18:15.525Z,3.36
2022-11-22T01:19:15.482Z,3.37
2022-11-22T01:20:15.493Z,3.36
2022-11-22T01:21:15.457Z,3.32
2022-11-22T01:22:15.487Z,3.29
2022-11-22T01:23:15.435Z,3.25
2022-11-22T01:24:15.436Z,3.23
2022-11-22T01:25:15.411Z,3.23
2022-11-22T01:26:15.402Z,3.22
2022-11-22T01:27:15.377Z,3.23
2022-11-22T01:28:15.402Z,3.25
2022-11-22T01:29:15.360Z,3.23
2022-11-22T01:30:15.352Z,3.22
2022-11-22T01:31:15.326Z,3.21
2022-11-22T01:32:15.349Z,3.21
2022-11-22T01:33:15.461Z,3.22
2022-11-22T01:34:15.300Z,3.22
2022-11-22T01:35:15.279Z,3.21
2022-11-22T01:36:15.286Z,3.19
2022-11-22T01:37:15.246Z,3.19
2022-11-22T01:38:15.319Z,3.19
2022-11-22T01:39:15.246Z,3.19
2022-11-22T01:40:15.220Z,3.18
2022-11-22T01:41:15.226Z,3.19
2022-11-22T01:42:15.194Z,3.21
2022-11-22T01:43:15.177Z,3.21
2022-11-22T01:44:15.169Z,3.22
2022-11-22T01:45:15.153Z,3.23
2022-11-22T01:46:15.181Z,3.26
2022-11-22T01:47:15.121Z,3.28
2022-11-22T01:48:15.110Z,3.28
2022-11-22T01:49:15.114Z,3.28
2022-11-22T01:50:15.091Z,3.26
2022-11-22T01:51:15.096Z,3.25
2022-11-22T01:52:15.090Z,3.29
2022-11-22T01:53:15.156Z,3.31
2022-11-22T01:54:15.037Z,3.28
2022-11-22T01:55:15.014Z,3.31
2022-11-22T01:56:15.033Z,3.31
2022-11-22T01:57:15.008Z,3.31
2022-11-22T01:58:14.987Z,3.31
2022-11-22T01:59:14.957Z,3.29
2022-11-22T02:00:14.976Z,3.31
2022-11-22T02:01:14.962Z,3.28
2022-11-22T02:02:14.956Z,3.29
2022-11-22T02:03:14.932Z,3.26
2022-11-22T02:04:14.903Z,3.25
2022-11-22T02:05:14.883Z,3.25
2022-11-22T02:06:14.877Z,3.23
2022-11-22T02:07:14.913Z,3.23
2022-11-22T02:08:14.873Z,3.22
2022-11-22T02:09:14.830Z,3.21
2022-11-22T02:10:14.824Z,3.21
2022-11-22T02:11:14.801Z,3.22
2022-11-22T02:12:14.799Z,3.21
2022-11-22T02:13:14.804Z,3.22
2022-11-22T02:14:14.775Z,3.21
2022-11-22T02:15:14.756Z,3.19
2022-11-22T02:16:14.754Z,3.16
2022-11-22T02:17:14.731Z,3.11
2022-11-22T02:18:14.750Z,3.05
2022-11-22T02:19:14.728Z,3.03
2022-11-22T02:20:14.680Z,2.98
2022-11-22T02:21:14.674Z,2.97
2022-11-22T02:22:14.675Z,2.97
2022-11-22T02:23:14.663Z,2.95
2022-11-22T02:24:14.676Z,2.92
2022-11-22T02:25:14.624Z,2.93
2022-11-22T02:26:14.625Z,2.92
2022-11-22T02:27:14.640Z,2.90
2022-11-22T02:28:14.585Z,2.86
2022-11-22T02:29:14.596Z,2.89
2022-11-22T02:30:14.557Z,2.89
2022-11-22T02:31:14.559Z,2.90
2022-11-22T02:32:14.541Z,2.92
2022-11-22T02:33:14.516Z,2.93
2022-11-22T02:34:14.539Z,2.93
2022-11-22T02:35:14.488Z,2.95
2022-11-22T02:36:14.524Z,2.97
2022-11-22T02:37:14.470Z,2.95
2022-11-22T02:38:14.467Z,2.98
2022-11-22T02:39:14.435Z,2.97
2022-11-22T02:40:14.459Z,2.97
2022-11-22T02:41:14.438Z,2.98
2022-11-22T02:42:14.407Z,2.98
2022-11-22T02:43:14.388Z,2.98
2022-11-22T02:44:14.377Z,2.97
2022-11-22T02:45:14.379Z,2.98
2022-11-22T02:46:14.382Z,2.98
2022-11-22T02:47:14.329Z,2.97
2022-11-22T02:48:14.319Z,2.97
2022-11-22T02:49:14.323Z,2.97
2022-11-22T02:50:14.307Z,2.97
2022-11-22T02:51:14.285Z,2.95
2022-11-22T02:52:14.300Z,2.97
2022-11-22T02:53:14.254Z,2.97
2022-11-22T02:54:14.252Z,2.98
2022-11-22T02:55:14.227Z,2.98
2022-11-22T02:56:14.227Z,3.00
2022-11-22T02:57:14.241Z,3.00
2022-11-22T02:58:14.228Z,3.03
2022-11-22T02:59:14.172Z,3.03
2022-11-22T03:00:14.171Z,3.03
2022-11-22T03:01:14.269Z,3.03
2022-11-22T03:02:14.160Z,3.04
2022-11-22T03:03:14.131Z,3.04
2022-11-22T03:04:14.121Z,3.04
2022-11-22T03:05:14.127Z,3.04
2022-11-22T03:06:14.094Z,3.04
2022-11-22T03:07:14.117Z,3.05
2022-11-22T03:08:14.102Z,3.07
2022-11-22T03:09:14.056Z,3.07
2022-11-22T03:10:14.035Z,3.05
2022-11-22T03:11:14.013Z,3.07
2022-11-22T03:12:14.067Z,3.07
2022-11-22T03:13:13.995Z,3.07
2022-11-22T03:14:14.013Z,3.05
2022-11-22T03:15:13.965Z,3.05
2022-11-22T03:16:13.975Z,3.07
2022-11-22T03:17:13.936Z,3.07
2022-11-22T03:18:13.966Z,3.08
2022-11-22T03:19:13.906Z,3.10
2022-11-22T03:20:13.910Z,3.10
2022-11-22T03:21:13.902Z,3.10
2022-11-22T03:22:13.896Z,3.11
2022-11-22T03:23:13.875Z,3.11
2022-11-22T03:24:13.851Z,3.13
2022-11-22T03:25:13.857Z,3.11
2022-11-22T03:26:13.824Z,3.11
2022-11-22T03:27:13.849Z,3.11
2022-11-22T03:28:13.796Z,3.11
2022-11-22T03:29:13.817Z,3.10
2022-11-22T03:30:13.768Z,3.07
2022-11-22T03:31:13.765Z,3.05
2022-11-22T03:32:13.793Z,3.05
2022-11-22T03:33:13.767Z,3.07
2022-11-22T03:34:13.720Z,3.05
2022-11-22T03:35:13.711Z,3.04
2022-11-22T03:36:13.691Z,3.03
2022-11-22T03:37:13.717Z,3.01
2022-11-22T03:38:13.688Z,3.00
2022-11-22T03:39:13.663Z,2.97
2022-11-22T03:40:13.662Z,2.97
2022-11-22T03:41:13.719Z,2.95
2022-11-22T03:42:18.188Z,2.93
2022-11-22T03:43:13.623Z,2.93
2022-11-22T03:44:13.587Z,2.92
2022-11-22T03:45:13.600Z,2.92
2022-11-22T03:46:13.570Z,2.90
2022-11-22T03:47:13.554Z,2.95
2022-11-22T03:48:13.554Z,2.97
2022-11-22T03:49:13.527Z,2.98
2022-11-22T03:50:13.536Z,3.00
2022-11-22T03:51:13.507Z,3.01
2022-11-22T03:52:13.481Z,3.03
2022-11-22T03:53:13.491Z,3.05
2022-11-22T03:54:13.456Z,3.03
2022-11-22T03:55:13.453Z,3.03
2022-11-22T03:56:13.448Z,3.03
2022-11-22T03:57:13.426Z,3.01
2022-11-22T03:58:13.399Z,3.01
2022-11-22T03:59:13.393Z,3.01
2022-11-22T04:00:13.380Z,3.00
2022-11-22T04:01:16.511Z,2.98
2022-11-22T04:02:13.417Z,3.00
2022-11-22T04:03:13.347Z,3.01
2022-11-22T04:04:13.327Z,3.01
2022-11-22T04:05:13.320Z,3.04
2022-11-22T04:06:13.329Z,3.04
2022-11-22T04:07:13.316Z,3.05
2022-11-22T04:08:13.280Z,3.07
2022-11-22T04:09:13.350Z,3.08
2022-11-22T04:10:16.378Z,3.08
2022-11-22T04:11:13.245Z,3.10
2022-11-22T04:12:13.214Z,3.11
2022-11-22T04:13:13.247Z,3.11
2022-11-22T04:14:13.190Z,3.13
2022-11-22T04:15:13.211Z,3.14
2022-11-22T04:16:13.189Z,3.18
2022-11-22T04:17:13.162Z,3.19
2022-11-22T04:18:13.167Z,3.19
2022-11-22T04:19:13.134Z,3.21
2022-11-22T04:20:13.107Z,3.22
2022-11-22T04:21:13.101Z,3.22
2022-11-22T04:22:13.108Z,3.22
2022-11-22T04:23:13.082Z,3.23
2022-11-22T04:24:13.057Z,3.21
2022-11-22T04:25:13.058Z,3.22
2022-11-22T04:26:13.068Z,3.21
2022-11-22T04:27:13.053Z,3.18
2022-11-22T04:28:13.013Z,3.16
2022-11-22T04:29:13.009Z,3.14
2022-11-22T04:30:18.909Z,3.13
2022-11-22T04:31:12.977Z,3.10
2022-11-22T04:32:12.951Z,3.10
2022-11-22T04:33:12.978Z,3.10
2022-11-22T04:34:12.931Z,3.10
2022-11-22T04:35:13.011Z,3.11
2022-11-22T04:36:13.557Z,3.11
2022-11-22T04:37:12.905Z,3.13
2022-11-22T04:38:12.878Z,3.14
2022-11-22T04:39:12.911Z,3.14
2022-11-22T04:40:12.885Z,3.13
2022-11-22T04:41:12.853Z,3.13
2022-11-22T04:42:12.833Z,3.11
2022-11-22T04:43:12.854Z,3.11
2022-11-22T04:44:12.954Z,3.13
2022-11-22T04:45:12.863Z,3.11
2022-11-22T04:46:12.802Z,3.11
2022-11-22T04:47:12.774Z,3.10
2022-11-22T04:48:12.755Z,3.10
2022-11-22T04:49:12.743Z,3.11
2022-11-22T04:50:12.714Z,3.13
2022-11-22T04:51:12.747Z,3.13
2022-11-22T04:52:12.691Z,3.16
2022-11-22T04:53:12.720Z,3.16
2022-11-22T04:54:12.666Z,3.19
2022-11-22T04:55:12.669Z,3.19
2022-11-22T04:56:12.636Z,3.21
2022-11-22T04:57:12.634Z,3.21
2022-11-22T04:58:12.652Z,3.21
2022-11-22T04:59:12.609Z,3.21
2022-11-22T05:00:12.616Z,3.21
2022-11-22T05:01:12.745Z,3.22
2022-11-22T05:02:12.564Z,3.25
2022-11-22T05:03:12.556Z,3.22
2022-11-22T05:04:12.576Z,3.22
2022-11-22T05:05:12.561Z,3.21
2022-11-22T05:06:12.527Z,3.23
2022-11-22T05:07:12.561Z,3.23
2022-11-22T05:08:12.497Z,3.23
2022-11-22T05:09:12.484Z,3.26
2022-11-22T05:10:12.484Z,3.25
2022-11-22T05:11:12.462Z,3.26
2022-11-22T05:12:12.430Z,3.26
2022-11-22T05:13:12.417Z,3.25
2022-11-22T05:14:12.402Z,3.26
2022-11-22T05:15:12.438Z,3.23
2022-11-22T05:16:12.396Z,3.25
2022-11-22T05:17:13.688Z,3.23
2022-11-22T05:18:12.354Z,3.25
2022-11-22T05:19:12.347Z,3.23
2022-11-22T05:20:12.315Z,3.23
2022-11-22T05:21:12.382Z,3.19
2022-11-22T05:22:12.306Z,3.19
2022-11-22T05:23:12.304Z,3.18
2022-11-22T05:24:12.274Z,3.18
2022-11-22T05:25:12.299Z,3.16
2022-11-22T05:26:12.255Z,3.19
2022-11-22T05:27:12.243Z,3.21
2022-11-22T05:28:12.224Z,3.18
2022-11-22T05:29:12.250Z,3.16
2022-11-22T05:30:12.203Z,3.16
2022-11-22T05:31:12.217Z,3.13
2022-11-22T05:32:12.169Z,3.11
2022-11-22T05:33:12.167Z,3.08
2022-11-22T05:34:12.145Z,3.10
2022-11-22T05:35:12.144Z,3.07
2022-11-22T05:36:12.146Z,3.08
2022-11-22T05:37:12.115Z,3.07
2022-11-22T05:38:12.114Z,3.08
2022-11-22T05:39:12.097Z,3.05
2022-11-22T05:40:12.068Z,3.05
2022-11-22T05:41:12.065Z,3.03
2022-11-22T05:42:12.072Z,3.03
2022-11-22T05:43:12.028Z,3.03
2022-11-22T05:44:12.015Z,3.03
2022-11-22T05:45:12.008Z,3.03
2022-11-22T05:46:11.996Z,3.05
2022-11-22T05:47:12.022Z,3.04
2022-11-22T05:48:11.955Z,3.07
2022-11-22T05:49:11.967Z,3.07
2022-11-22T05:50:11.933Z,3.08
2022-11-22T05:51:11.942Z,3.10
2022-11-22T05:52:11.942Z,3.08
2022-11-22T05:53:11.908Z,3.13
2022-11-22T05:54:11.883Z,3.14
2022-11-22T05:55:11.885Z,3.13
2022-11-22T05:56:11.862Z,3.13
2022-11-22T05:57:11.852Z,3.13
2022-11-22T05:58:11.864Z,3.13
2022-11-22T05:59:11.823Z,3.13
2022-11-22T06:00:11.812Z,3.11
2022-11-22T06:01:11.791Z,3.13
2022-11-22T06:02:11.817Z,3.16
2022-11-22T06:03:11.808Z,3.18
2022-11-22T06:04:11.754Z,3.21
2022-11-22T06:05:11.780Z,3.21
2022-11-22T06:06:11.724Z,3.22
2022-11-22T06:07:11.800Z,3.22
2022-11-22T06:08:11.694Z,3.25
2022-11-22T06:09:11.728Z,3.25
2022-11-22T06:10:11.664Z,3.25
2022-11-22T06:11:11.667Z,3.26
2022-11-22T06:12:11.668Z,3.28
2022-11-22T06:13:11.646Z,3.29
2022-11-22T06:14:11.633Z,3.29
2022-11-22T06:15:11.652Z,3.29
2022-11-22T06:16:11.596Z,3.29
2022-11-22T06:17:11.622Z,3.31
2022-11-22T06:18:11.571Z,3.29
2022-11-22T06:19:11.568Z,3.31
2022-11-22T06:20:11.542Z,3.32
2022-11-22T06:21:11.537Z,3.32
2022-11-22T06:22:11.546Z,3.34
2022-11-22T06:23:11.511Z,3.34
2022-11-22T06:24:11.506Z,3.32
2022-11-22T06:25:11.559Z,3.36
2022-11-22T06:26:11.466Z,3.34
2022-11-22T06:27:11.486Z,3.36
2022-11-22T06:28:11.445Z,3.34
2022-11-22T06:29:11.454Z,3.34
2022-11-22T06:30:11.414Z,3.34
2022-11-22T06:31:11.412Z,3.36
2022-11-22T06:32:11.378Z,3.32
2022-11-22T06:33:11.392Z,3.34
2022-11-22T06:34:11.442Z,3.34
2022-11-22T06:35:11.362Z,3.37
2022-11-22T06:36:11.338Z,3.40
2022-11-22T06:37:11.334Z,3.41
2022-11-22T06:38:11.314Z,3.41
2022-11-22T06:39:11.343Z,3.40
2022-11-22T06:40:11.285Z,3.42
2022-11-22T06:41:11.275Z,3.44
2022-11-22T06:42:11.254Z,3.42
2022-11-22T06:43:11.267Z,3.44
2022-11-22T06:44:11.232Z,3.44
2022-11-22T06:45:11.225Z,3.44
2022-11-22T06:46:11.206Z,3.45
2022-11-22T06:47:11.204Z,3.45
2022-11-22T06:48:11.193Z,3.47
2022-11-22T06:49:11.211Z,3.44
2022-11-22T06:50:11.152Z,3.45
2022-11-22T06:51:11.175Z,3.42
2022-11-22T06:52:11.123Z,3.45
2022-11-22T06:53:32.449Z,3.47
2022-11-22T06:54:11.146Z,3.45
2022-11-22T06:55:34.484Z,3.48
2022-11-22T06:56:11.079Z,3.50
2022-11-22T06:57:11.063Z,3.51
2022-11-22T06:58:11.045Z,3.50
2022-11-22T06:59:11.058Z,3.53
2022-11-22T07:00:11.041Z,3.55
2022-11-22T07:01:11.087Z,3.55
2022-11-22T07:02:11.011Z,3.55
2022-11-22T07:03:10.989Z,3.56
2022-11-22T07:04:10.978Z,3.58
2022-11-22T07:05:25.154Z,3.58
2022-11-22T07:06:10.994Z,3.58
2022-11-22T07:07:10.993Z,3.59
2022-11-22T07:08:13.968Z,3.60
2022-11-22T07:09:10.910Z,3.62
2022-11-22T07:10:10.917Z,3.60
2022-11-22T07:11:10.909Z,3.60
2022-11-22T07:12:10.857Z,3.60
2022-11-22T07:13:10.858Z,3.62
2022-11-22T07:14:10.841Z,3.62
2022-11-22T07:15:10.870Z,3.63
2022-11-22T07:16:10.810Z,3.65
2022-11-22T07:17:10.828Z,3.65
2022-11-22T07:18:10.785Z,3.65
2022-11-22T07:19:10.786Z,3.65
2022-11-22T07:20:10.784Z,3.65
2022-11-22T07:21:13.196Z,3.66
2022-11-22T07:22:10.733Z,3.66
2022-11-22T07:23:10.724Z,3.66
2022-11-22T07:24:10.723Z,3.69
2022-11-22T07:25:10.695Z,3.70
2022-11-22T07:26:10.700Z,3.69
2022-11-22T07:27:10.701Z,3.73
2022-11-22T07:28:10.671Z,3.73
2022-11-22T07:29:10.650Z,3.74
2022-11-22T07:30:10.661Z,3.70
2022-11-22T07:31:10.613Z,3.68
2022-11-22T07:32:10.640Z,3.68
2022-11-22T07:33:10.583Z,3.63
2022-11-22T07:34:10.581Z,3.62
2022-11-22T07:35:10.553Z,3.60
2022-11-22T07:36:10.570Z,3.62
2022-11-22T07:37:10.557Z,3.65
2022-11-22T07:38:10.526Z,3.65
2022-11-22T07:39:10.507Z,3.66
2022-11-22T07:40:10.507Z,3.66
2022-11-22T07:41:10.504Z,3.66
2022-11-22T07:42:10.476Z,3.65
2022-11-22T07:43:10.462Z,3.68
2022-11-22T07:44:10.443Z,3.66
2022-11-22T07:45:10.423Z,3.68
2022-11-22T07:46:10.462Z,3.68
2022-11-22T07:47:10.396Z,3.69
2022-11-22T07:48:10.403Z,3.70
2022-11-22T07:49:10.371Z,3.70
2022-11-22T07:50:10.376Z,3.74
2022-11-22T07:51:10.425Z,3.76
2022-11-22T07:52:10.379Z,3.77
2022-11-22T07:53:10.326Z,3.77
2022-11-22T07:54:10.344Z,3.78
2022-11-22T07:55:14.113Z,3.80
2022-11-22T07:56:10.295Z,3.83
2022-11-22T07:57:10.304Z,3.81
2022-11-22T07:58:10.264Z,3.83
2022-11-22T07:59:10.252Z,3.81
2022-11-22T08:00:10.237Z,3.81
2022-11-22T08:01:10.371Z,3.83
2022-11-22T08:02:10.318Z,3.83
2022-11-22T08:03:13.134Z,3.81
2022-11-22T08:04:10.194Z,3.80
2022-11-22T08:05:10.164Z,3.80
2022-11-22T08:06:10.206Z,3.81
2022-11-22T08:07:10.202Z,3.83
2022-11-22T08:08:10.140Z,3.83
2022-11-22T08:09:10.109Z,3.84
2022-11-22T08:10:10.114Z,3.84
2022-11-22T08:11:10.114Z,3.87
2022-11-22T08:12:10.087Z,3.86
2022-11-22T08:13:10.059Z,3.86
2022-11-22T08:14:10.060Z,3.88
2022-11-22T08:15:10.042Z,3.88
2022-11-22T08:16:10.063Z,3.88
2022-11-22T08:17:10.018Z,3.88
2022-11-22T08:18:10.041Z,3.92
2022-11-22T08:19:09.978Z,3.92
2022-11-22T08:20:09.979Z,3.92
2022-11-22T08:21:09.964Z,3.91
2022-11-22T08:22:10.011Z,3.91
2022-11-22T08:23:09.932Z,3.88
2022-11-22T08:24:09.970Z,3.88
2022-11-22T08:25:09.911Z,3.91
2022-11-22T08:26:09.904Z,3.88
2022-11-22T08:27:09.883Z,3.88
2022-11-22T08:28:09.872Z,3.92
2022-11-22T08:29:13.937Z,3.91
2022-11-22T08:30:09.846Z,3.91
2022-11-22T08:31:09.826Z,3.87
2022-11-22T08:32:09.823Z,3.83
2022-11-22T08:33:09.825Z,3.81
2022-11-22T08:34:09.804Z,3.81
2022-11-22T08:35:09.770Z,3.81
2022-11-22T08:36:09.795Z,3.83
2022-11-22T08:37:09.737Z,3.84
2022-11-22T08:38:09.734Z,3.84
2022-11-22T08:39:09.710Z,3.84
2022-11-22T08:40:09.741Z,3.84
2022-11-22T08:41:09.711Z,3.86
2022-11-22T08:42:09.681Z,3.88
2022-11-22T08:43:09.663Z,3.88
2022-11-22T08:44:09.670Z,3.94
2022-11-22T08:45:09.669Z,3.95
2022-11-22T08:46:09.654Z,3.98
2022-11-22T08:47:09.611Z,3.99
2022-11-22T08:48:09.615Z,3.99
2022-11-22T08:49:09.583Z,3.99
2022-11-22T08:50:09.593Z,4.02
2022-11-22T08:51:09.591Z,4.01
2022-11-22T08:52:09.559Z,4.02
2022-11-22T08:53:09.553Z,4.01
2022-11-22T08:54:09.575Z,4.01
2022-11-22T08:55:09.499Z,4.01
2022-11-22T08:56:09.541Z,4.01
2022-11-22T08:57:09.512Z,4.04
2022-11-22T08:58:09.518Z,4.05
2022-11-22T08:59:09.487Z,4.06
2022-11-22T09:00:09.450Z,4.06
2022-11-22T09:01:09.494Z,4.06
2022-11-22T09:02:09.466Z,4.05
2022-11-22T09:03:09.404Z,4.05
2022-11-22T09:04:09.403Z,4.05
2022-11-22T09:05:09.371Z,4.06
2022-11-22T09:08:24.766Z,4.02
2022-11-22T09:09:35.894Z,3.99
2022-11-22T09:10:09.324Z,3.98
2022-11-22T09:11:09.326Z,3.95
2022-11-22T09:12:09.323Z,3.95
2022-11-22T09:13:09.273Z,3.94
2022-11-22T09:14:09.273Z,3.94
2022-11-22T09:15:09.248Z,3.94
2022-11-22T09:16:09.264Z,3.95
2022-11-22T09:17:13.177Z,3.95
2022-11-22T09:18:09.222Z,3.94
2022-11-22T09:19:09.217Z,3.92
2022-11-22T09:20:09.188Z,3.94
2022-11-22T09:21:09.160Z,3.92
2022-11-22T09:22:09.185Z,3.95
2022-11-22T09:23:09.157Z,3.95
2022-11-22T09:24:09.163Z,3.96
2022-11-22T09:25:09.113Z,3.98
2022-11-22T09:26:09.121Z,3.99
2022-11-22T09:27:09.085Z,3.99
2022-11-22T09:28:09.114Z,3.98
2022-11-22T09:29:09.095Z,3.99
2022-11-22T09:30:09.063Z,4.01
2022-11-22T09:31:09.039Z,4.01
2022-11-22T09:32:09.038Z,3.99
2022-11-22T09:33:09.041Z,4.01
2022-11-22T09:34:08.999Z,4.04
2022-11-22T09:35:08.984Z,4.04
2022-11-22T09:36:08.977Z,4.06
2022-11-22T09:37:08.978Z,4.08
2022-11-22T09:38:08.957Z,4.10
2022-11-22T09:39:08.977Z,4.10
2022-11-22T09:40:08.953Z,4.10
2022-11-22T09:41:08.925Z,4.08
2022-11-22T09:42:08.934Z,4.08
2022-11-22T09:43:08.874Z,4.08
2022-11-22T09:44:08.873Z,4.06
2022-11-22T09:45:08.859Z,4.10
2022-11-22T09:46:08.846Z,4.12
2022-11-22T09:47:08.854Z,4.13
2022-11-22T09:48:10.122Z,4.14
2022-11-22T09:49:08.809Z,4.13
2022-11-22T09:50:08.800Z,4.14
2022-11-22T09:51:08.774Z,4.14
2022-11-22T09:52:08.786Z,4.13
2022-11-22T09:53:08.746Z,4.16
2022-11-22T09:54:08.749Z,4.14
2022-11-22T09:55:08.720Z,4.16
2022-11-22T09:56:08.715Z,4.17
2022-11-22T09:57:08.720Z,4.19
2022-11-22T09:58:08.716Z,4.17
2022-11-22T09:59:08.682Z,4.19
2022-11-22T10:00:08.672Z,4.20
2022-11-22T10:01:08.720Z,4.20
2022-11-22T10:02:18.090Z,4.22
2022-11-22T10:03:08.617Z,4.20
2022-11-22T10:04:08.618Z,4.19
2022-11-22T10:05:08.607Z,4.20
2022-11-22T10:06:08.605Z,4.19
2022-11-22T10:07:08.602Z,4.17
2022-11-22T10:08:08.546Z,4.17
2022-11-22T10:09:08.537Z,4.17
2022-11-22T10:10:08.530Z,4.20
2022-11-22T10:11:08.511Z,4.20
2022-11-22T10:12:08.535Z,4.22
2022-11-22T10:13:08.472Z,4.22
2022-11-22T10:14:08.506Z,4.23
2022-11-22T10:15:08.453Z,4.24
2022-11-22T10:16:08.444Z,4.26
2022-11-22T10:17:08.465Z,4.28
2022-11-22T10:18:08.473Z,4.30
2022-11-22T10:19:08.411Z,4.32
2022-11-22T10:20:08.420Z,4.32
2022-11-22T10:21:08.425Z,4.31
2022-11-22T10:22:08.373Z,4.30
2022-11-22T10:23:08.347Z,4.30
2022-11-22T10:24:08.338Z,4.30
2022-11-22T10:25:08.346Z,4.30
2022-11-22T10:26:08.354Z,4.30
2022-11-22T10:27:08.299Z,4.28
2022-11-22T10:28:08.304Z,4.30
2022-11-22T10:29:08.272Z,4.32
2022-11-22T10:30:08.266Z,4.31
2022-11-22T10:31:08.276Z,4.31
2022-11-22T10:32:08.254Z,4.32
2022-11-22T10:33:08.217Z,4.32
2022-11-22T10:34:08.207Z,4.31
2022-11-22T10:35:08.229Z,4.34
2022-11-22T10:36:08.199Z,4.32
2022-11-22T10:37:08.168Z,4.34
2022-11-22T10:38:08.167Z,4.34
2022-11-22T10:39:08.170Z,4.35
2022-11-22T10:40:08.136Z,4.32
2022-11-22T10:41:08.118Z,4.34
2022-11-22T10:42:08.158Z,4.34
2022-11-22T10:43:08.088Z,4.35
2022-11-22T10:44:08.104Z,4.34
2022-11-22T10:45:08.164Z,4.37
2022-11-22T10:46:08.055Z,4.35
2022-11-22T10:47:08.046Z,4.35
2022-11-22T10:48:08.081Z,4.34
2022-11-22T10:49:08.008Z,4.34
2022-11-22T10:50:08.009Z,4.28
2022-11-22T10:51:07.996Z,4.30
2022-11-22T10:52:07.975Z,4.26
2022-11-22T10:53:07.985Z,4.23
2022-11-22T10:54:07.959Z,4.23
2022-11-22T10:55:07.929Z,4.20
2022-11-22T10:56:07.927Z,4.17
2022-11-22T10:57:07.907Z,4.19
2022-11-22T10:58:07.941Z,4.14
2022-11-22T10:59:07.900Z,4.14
2022-11-22T11:00:07.873Z,4.16
2022-11-22T11:01:07.971Z,4.14
2022-11-22T11:02:07.845Z,4.16
2022-11-22T11:03:07.816Z,4.14
2022-11-22T11:04:07.844Z,4.14
2022-11-22T11:05:07.802Z,4.16
2022-11-22T11:06:24.094Z,4.16
2022-11-22T11:07:12.558Z,4.17
2022-11-22T11:08:35.414Z,4.17
2022-11-22T11:10:12.984Z,4.17
2022-11-22T11:11:07.779Z,4.14
2022-11-22T11:12:07.715Z,4.13
2022-11-22T11:13:07.696Z,4.08
2022-11-22T11:14:07.731Z,4.05
2022-11-22T11:15:07.666Z,4.02
2022-11-22T11:16:07.656Z,4.02
2022-11-22T11:17:07.666Z,4.01
2022-11-22T11:18:07.626Z,3.99
2022-11-22T11:19:07.611Z,3.92
2022-11-22T11:20:07.639Z,3.87
2022-11-22T11:21:07.585Z,3.86
2022-11-22T11:22:07.582Z,3.83
2022-11-22T11:23:14.805Z,3.80
2022-11-22T11:24:07.584Z,3.77
2022-11-22T11:25:07.537Z,3.78
2022-11-22T11:26:07.528Z,3.78
2022-11-22T11:27:07.504Z,3.78
2022-11-22T11:28:07.535Z,3.78
2022-11-22T11:29:07.527Z,3.80
2022-11-22T11:30:07.482Z,3.83
2022-11-22T11:31:07.454Z,3.83
2022-11-22T11:32:07.450Z,3.84
2022-11-22T11:33:07.454Z,3.86
2022-11-22T11:34:07.426Z,3.87
2022-11-22T11:35:07.400Z,3.87
2022-11-22T11:36:07.413Z,3.91
2022-11-22T11:37:07.383Z,3.91
2022-11-22T11:38:07.391Z,3.88
2022-11-22T11:39:07.360Z,3.88
2022-11-22T11:40:07.340Z,3.87
2022-11-22T11:41:07.344Z,3.84
2022-11-22T11:42:07.352Z,3.84
2022-11-22T11:43:07.307Z,3.80
2022-11-22T11:44:07.307Z,3.78
2022-11-22T11:45:07.387Z,3.76
2022-11-22T11:46:07.295Z,3.76
2022-11-22T11:47:07.250Z,3.70
2022-11-22T11:48:07.235Z,3.69
2022-11-22T11:49:07.223Z,3.66
2022-11-22T11:50:07.211Z,3.65
2022-11-22T11:51:07.213Z,3.63
2022-11-22T11:52:07.202Z,3.62
2022-11-22T11:53:07.179Z,3.60
2022-11-22T11:54:07.156Z,3.60
2022-11-22T11:55:07.144Z,3.59
2022-11-22T11:56:07.151Z,3.59
2022-11-22T11:57:07.134Z,3.59
2022-11-22T11:58:07.099Z,3.62
2022-11-22T11:59:07.102Z,3.62
2022-11-22T12:00:07.082Z,3.60
2022-11-22T12:01:07.099Z,3.62
2022-11-22T12:02:07.085Z,3.59
2022-11-22T12:03:07.065Z,3.60
2022-11-22T12:04:07.018Z,3.58
2022-11-22T12:05:07.021Z,3.53
2022-11-22T12:06:06.992Z,3.50
2022-11-22T12:07:07.071Z,3.50
2022-11-22T12:08:06.991Z,3.47
2022-11-22T12:09:06.969Z,3.48
2022-11-22T12:10:06.942Z,3.48
2022-11-22T12:11:06.944Z,3.47
2022-11-22T12:12:06.918Z,3.44
2022-11-22T12:13:06.939Z,3.42
2022-11-22T12:14:22.228Z,3.37
2022-11-22T12:15:11.632Z,3.37
2022-11-22T12:16:06.873Z,3.40
2022-11-22T12:17:06.885Z,3.40
2022-11-22T12:18:06.840Z,3.40
2022-11-22T12:19:06.840Z,3.40
2022-11-22T12:20:06.843Z,3.40
2022-11-22T12:21:06.825Z,3.41
2022-11-22T12:22:06.787Z,3.41
2022-11-22T12:23:06.802Z,3.42
2022-11-22T12:24:40.977Z,3.42
2022-11-22T12:25:31.165Z,3.40
2022-11-22T12:26:06.736Z,3.42
2022-11-22T12:27:06.739Z,3.41
2022-11-22T12:28:06.711Z,3.42
2022-11-22T12:29:06.724Z,3.42
2022-11-22T12:30:06.677Z,3.44
2022-11-22T12:31:11.987Z,3.45
2022-11-22T12:32:06.665Z,3.45
2022-11-22T12:33:06.649Z,3.45
2022-11-22T12:34:06.633Z,3.45
2022-11-22T12:35:06.636Z,3.45
2022-11-22T12:36:06.628Z,3.47
2022-11-22T12:37:06.602Z,3.47
2022-11-22T12:38:06.569Z,3.47
2022-11-22T12:39:06.565Z,3.50
2022-11-22T12:40:06.549Z,3.51
2022-11-22T12:41:06.581Z,3.50
2022-11-22T12:42:06.532Z,3.53
2022-11-22T12:43:06.524Z,3.55
2022-11-22T12:44:06.503Z,3.53
2022-11-22T12:45:06.492Z,3.53
2022-11-22T12:46:06.467Z,3.51
2022-11-22T12:47:06.503Z,3.50
2022-11-22T12:48:06.450Z,3.53
2022-11-22T12:49:06.470Z,3.53
2022-11-22T12:50:06.417Z,3.51
2022-11-22T12:51:06.434Z,3.51
2022-11-22T12:52:06.413Z,3.53
2022-11-22T12:53:06.422Z,3.48
2022-11-22T12:54:06.406Z,3.45
2022-11-22T12:55:06.381Z,3.44
2022-11-22T12:56:06.347Z,3.44
2022-11-22T12:57:06.344Z,3.44
2022-11-22T12:58:06.310Z,3.42
2022-11-22T12:59:06.336Z,3.40
2022-11-22T13:00:06.297Z,3.41
2022-11-22T13:01:06.334Z,3.37
2022-11-22T13:02:06.269Z,3.36
2022-11-22T13:03:06.278Z,3.34
2022-11-22T13:04:06.309Z,3.31
2022-11-22T13:05:06.242Z,3.28
2022-11-22T13:06:06.207Z,3.23
2022-11-22T13:07:06.251Z,3.23
2022-11-22T13:08:06.184Z,3.23
2022-11-22T13:09:06.207Z,3.25
2022-11-22T13:10:06.154Z,3.26
2022-11-22T13:11:06.160Z,3.26
2022-11-22T13:12:06.138Z,3.25
2022-11-22T13:13:06.125Z,3.25
2022-11-22T13:14:06.155Z,3.23
2022-11-22T13:15:06.105Z,3.25
2022-11-22T13:16:06.075Z,3.25
2022-11-22T13:17:06.089Z,3.22
2022-11-22T13:18:06.079Z,3.22
2022-11-22T13:19:06.057Z,3.22
2022-11-22T13:20:06.023Z,3.23
2022-11-22T13:21:06.060Z,3.25